createdAt,value
2022-11-06T00:00:39.615Z,100855.28
2022-11-06T00:06:00.871Z,100851.09
2022-11-06T00:11:09.190Z,100863.72
2022-11-06T00:16:15.465Z,100878.00
2022-11-06T00:21:20.328Z,100882.19
2022-11-06T00:26:24.111Z,100883.00
2022-11-06T00:31:29.501Z,100885.50
2022-11-06T00:36:31.129Z,100888.03
2022-11-06T00:41:32.593Z,100882.13
2022-11-06T00:46:34.064Z,100883.81
2022-11-06T00:51:39.494Z,100886.34
2022-11-06T00:56:41.485Z,100874.59
2022-11-06T01:01:45.351Z,100882.16
2022-11-06T01:06:49.585Z,100877.94
2022-11-06T01:12:12.373Z,100872.84
2022-11-06T01:17:14.357Z,100869.44
2022-11-06T01:22:16.107Z,100867.72
2022-11-06T01:27:26.524Z,100871.91
2022-11-06T01:32:28.614Z,100865.16
2022-11-06T01:37:30.078Z,100865.97
2022-11-06T01:42:31.506Z,100867.66
2022-11-06T01:47:32.974Z,100854.19
2022-11-06T01:52:35.562Z,100847.47
2022-11-06T01:57:37.248Z,100833.22
2022-11-06T02:02:39.501Z,100818.94
2022-11-06T02:07:42.844Z,100811.38
2022-11-06T02:13:03.236Z,100787.88
2022-11-06T02:18:36.138Z,100778.59
2022-11-06T02:23:58.273Z,100769.34
2022-11-06T02:29:21.033Z,100756.72
2022-11-06T02:34:26.300Z,100754.97
2022-11-06T02:39:30.831Z,100744.09
2022-11-06T02:44:36.412Z,100737.31
2022-11-06T02:49:40.077Z,100743.19
2022-11-06T02:54:49.022Z,100749.00
2022-11-06T03:00:01.225Z,100743.91
2022-11-06T03:05:12.860Z,100751.38
2022-11-06T03:10:14.762Z,100743.81
2022-11-06T03:16:01.359Z,100730.38
2022-11-06T03:21:38.993Z,100734.59
2022-11-06T03:26:45.724Z,100751.38
2022-11-06T03:32:15.739Z,100732.91
2022-11-06T03:37:23.785Z,100733.63
2022-11-06T03:42:30.883Z,100725.97
2022-11-06T03:47:38.129Z,100720.91
2022-11-06T03:52:44.722Z,100719.19
2022-11-06T03:57:52.494Z,100705.75
2022-11-06T04:03:05.831Z,100699.84
2022-11-06T04:08:28.196Z,100698.13
2022-11-06T04:13:51.813Z,100687.25
2022-11-06T04:18:53.283Z,100684.72
2022-11-06T04:24:38.576Z,100696.41
2022-11-06T04:30:08.912Z,100707.19
2022-11-06T04:35:22.172Z,100723.88
2022-11-06T04:40:53.973Z,100722.94
2022-11-06T04:45:58.616Z,100725.38
2022-11-06T04:51:04.864Z,100731.25
2022-11-06T04:56:10.801Z,100745.50
2022-11-06T05:01:12.329Z,100755.56
2022-11-06T05:06:14.021Z,100748.03
2022-11-06T05:11:15.532Z,100743.84
2022-11-06T05:16:17.045Z,100731.41
2022-11-06T05:21:37.208Z,100738.09
2022-11-06T05:26:38.715Z,100738.03
2022-11-06T05:31:40.397Z,100733.06
2022-11-06T05:36:41.905Z,100735.72
2022-11-06T05:41:43.394Z,100737.63
2022-11-06T05:46:49.670Z,100695.00
2022-11-06T05:51:51.638Z,100696.69
2022-11-06T05:56:53.114Z,100674.97
2022-11-06T06:01:54.934Z,100659.88
2022-11-06T06:06:56.596Z,100659.94
2022-11-06T06:11:58.117Z,100660.81
2022-11-06T06:16:59.866Z,100642.28
2022-11-06T06:22:01.441Z,100645.59
2022-11-06T06:27:03.608Z,100643.06
2022-11-06T06:32:05.401Z,100622.94
2022-11-06T06:37:06.929Z,100603.66
2022-11-06T06:42:08.581Z,100592.00
2022-11-06T06:47:10.121Z,100581.19
2022-11-06T06:52:12.278Z,100565.34
2022-11-06T06:57:13.759Z,100551.13
2022-11-06T07:02:15.301Z,100535.59
2022-11-06T07:07:16.955Z,100522.78
2022-11-06T07:12:18.460Z,100503.66
2022-11-06T07:17:19.959Z,100490.13
2022-11-06T07:22:29.562Z,100486.13
2022-11-06T07:27:33.847Z,100474.94
2022-11-06T07:32:35.415Z,100470.66
2022-11-06T07:37:37.211Z,100463.28
2022-11-06T07:42:43.258Z,100469.69
2022-11-06T07:47:45.251Z,100466.44
2022-11-06T07:52:46.693Z,100481.97
2022-11-06T07:57:48.456Z,100506.22
2022-11-06T08:02:53.959Z,100522.84
2022-11-06T08:07:58.490Z,100531.81
2022-11-06T08:13:00.911Z,100551.28
2022-11-06T08:18:02.438Z,100564.28
2022-11-06T08:23:05.986Z,100598.03
2022-11-06T08:28:07.538Z,100604.19
2022-11-06T08:33:09.231Z,100601.91
2022-11-06T08:38:10.854Z,100599.28
2022-11-06T08:43:12.757Z,100589.44
2022-11-06T08:48:14.405Z,100587.25
2022-11-06T08:53:16.296Z,100565.50
2022-11-06T08:58:18.270Z,100539.25
2022-11-06T09:03:19.719Z,100504.41
2022-11-06T09:08:21.231Z,100497.69
2022-11-06T09:13:22.753Z,100484.91
2022-11-06T09:18:24.243Z,100452.75
2022-11-06T09:23:25.890Z,100444.03
2022-11-06T09:28:27.368Z,100432.25
2022-11-06T09:33:28.825Z,100425.13
2022-11-06T09:38:30.313Z,100411.13
2022-11-06T09:44:09.327Z,100411.09
2022-11-06T09:49:28.901Z,100403.31
2022-11-06T09:54:38.996Z,100406.63
2022-11-06T09:59:41.541Z,100397.22
2022-11-06T10:04:55.773Z,100379.59
2022-11-06T10:09:57.844Z,100365.66
2022-11-06T10:15:23.053Z,100362.50
2022-11-06T10:21:07.047Z,100339.00
2022-11-06T10:26:15.995Z,100330.06
2022-11-06T10:31:41.235Z,100321.88
2022-11-06T10:36:50.288Z,100318.00
2022-11-06T10:41:58.978Z,100287.69
2022-11-06T10:47:23.055Z,100281.31
2022-11-06T10:53:01.488Z,100269.34
2022-11-06T10:58:06.544Z,100262.13
2022-11-06T11:03:28.167Z,100254.53
2022-11-06T11:08:35.503Z,100256.78
2022-11-06T11:13:38.956Z,100252.28
2022-11-06T11:18:40.432Z,100234.53
2022-11-06T11:23:42.180Z,100219.34
2022-11-06T11:28:49.682Z,100212.47
2022-11-06T11:33:54.777Z,100198.72
2022-11-06T11:38:56.632Z,100185.88
2022-11-06T11:44:06.043Z,100180.13
2022-11-06T11:49:26.370Z,100170.72
2022-11-06T11:54:34.352Z,100171.03
2022-11-06T11:59:46.359Z,100164.66
2022-11-06T12:04:52.776Z,100150.78
2022-11-06T12:09:54.589Z,100136.31
2022-11-06T12:15:21.334Z,100134.44
2022-11-06T12:20:57.985Z,100120.94
2022-11-06T12:26:08.669Z,100124.75
2022-11-06T12:31:24.324Z,100126.25
2022-11-06T12:36:29.786Z,100129.03
2022-11-06T12:41:45.419Z,100116.47
2022-11-06T12:47:05.476Z,100116.75
2022-11-06T12:52:32.456Z,100105.13
2022-11-06T12:57:38.801Z,100096.44
2022-11-06T13:02:58.482Z,100078.00
2022-11-06T13:08:25.005Z,100070.97
2022-11-06T13:13:54.681Z,100064.44
2022-11-06T13:19:09.629Z,100069.25
2022-11-06T13:24:18.437Z,100060.38
2022-11-06T13:29:23.989Z,100063.47
2022-11-06T13:34:30.535Z,100053.66
2022-11-06T13:39:42.790Z,100039.97
2022-11-06T13:44:44.447Z,100019.06
2022-11-06T13:50:10.754Z,100017.66
2022-11-06T13:55:53.443Z,100026.69
2022-11-06T14:01:13.297Z,100033.94
2022-11-06T14:06:21.820Z,100025.81
2022-11-06T14:11:30.416Z,100023.16
2022-11-06T14:16:34.092Z,100019.44
2022-11-06T14:21:53.237Z,100020.59
2022-11-06T14:26:54.933Z,100014.06
2022-11-06T14:32:19.372Z,100025.28
2022-11-06T14:37:30.847Z,100026.66
2022-11-06T14:42:42.020Z,100004.72
2022-11-06T14:47:46.183Z,99994.34
2022-11-06T14:53:03.461Z,100000.59
2022-11-06T14:58:24.495Z,100020.81
2022-11-06T15:03:35.771Z,100025.66
2022-11-06T15:08:46.543Z,100016.84
2022-11-06T15:13:48.094Z,100036.88
2022-11-06T15:18:51.373Z,100030.88
2022-11-06T15:24:07.216Z,100035.69
2022-11-06T15:29:17.505Z,100037.13
2022-11-06T15:34:33.736Z,100028.19
2022-11-06T15:40:00.959Z,99992.72
2022-11-06T15:45:21.558Z,99997.22
2022-11-06T15:50:31.162Z,99987.09
2022-11-06T15:55:35.998Z,99987.69
2022-11-06T16:00:41.423Z,99996.25
2022-11-06T16:05:43.474Z,99993.00
2022-11-06T16:10:48.522Z,99978.06
2022-11-06T16:15:57.274Z,99992.00
2022-11-06T16:21:18.894Z,99968.31
2022-11-06T16:26:37.309Z,99990.47
2022-11-06T16:31:40.087Z,100004.72
2022-11-06T16:37:00.024Z,100009.00
2022-11-06T16:42:16.712Z,100014.09
2022-11-06T16:47:22.822Z,100017.59
2022-11-06T16:52:34.454Z,100030.41
2022-11-06T16:57:44.275Z,100027.03
2022-11-06T17:02:49.254Z,100043.19
2022-11-06T17:08:07.371Z,100059.19
2022-11-06T17:13:25.095Z,100059.13
2022-11-06T17:18:31.567Z,100060.31
2022-11-06T17:23:33.882Z,100052.78
2022-11-06T17:28:35.438Z,100068.22
2022-11-06T17:33:37.016Z,100064.84
2022-11-06T17:38:38.593Z,100075.84
2022-11-06T17:43:43.065Z,100081.19
2022-11-06T17:48:44.515Z,100077.91
2022-11-06T17:53:46.023Z,100080.72
2022-11-06T17:58:47.481Z,100086.69
2022-11-06T18:03:49.040Z,100080.66
2022-11-06T18:08:58.408Z,100083.94
2022-11-06T18:14:00.079Z,100085.34
2022-11-06T18:19:01.847Z,100072.47
2022-11-06T18:24:03.973Z,100073.22
2022-11-06T18:29:07.052Z,100084.13
2022-11-06T18:34:18.445Z,100094.38
2022-11-06T18:39:21.600Z,100093.59
2022-11-06T18:44:26.347Z,100116.47
2022-11-06T18:49:27.803Z,100102.94
2022-11-06T18:54:29.883Z,100106.34
2022-11-06T18:59:31.714Z,100114.72
2022-11-06T19:04:33.244Z,100101.13
2022-11-06T19:09:34.743Z,100109.66
2022-11-06T19:14:36.227Z,100116.13
2022-11-06T19:19:37.875Z,100103.19
2022-11-06T19:24:39.409Z,100113.94
2022-11-06T19:29:40.904Z,100118.06
2022-11-06T19:34:42.519Z,100117.00
2022-11-06T19:39:43.984Z,100129.47
2022-11-06T19:44:45.439Z,100123.28
2022-11-06T19:49:46.900Z,100127.25
2022-11-06T19:54:48.381Z,100126.97
2022-11-06T19:59:49.832Z,100115.69
2022-11-06T20:04:51.333Z,100108.59
2022-11-06T20:09:54.568Z,100109.19
2022-11-06T20:14:56.064Z,100122.47
2022-11-06T20:19:57.568Z,100117.28
2022-11-06T20:24:59.081Z,100109.56
2022-11-06T20:30:00.690Z,100109.56
2022-11-06T20:35:03.324Z,100121.47
2022-11-06T20:40:05.602Z,100116.44
2022-11-06T20:45:07.965Z,100110.53
2022-11-06T20:50:09.576Z,100105.97
2022-11-06T20:55:11.063Z,100112.16
2022-11-06T21:00:13.307Z,100107.06
2022-11-06T21:05:15.093Z,100125.00
2022-11-06T21:10:16.779Z,100136.63
2022-11-06T21:15:18.241Z,100149.09
2022-11-06T21:20:23.035Z,100165.91
2022-11-06T21:25:24.793Z,100171.75
2022-11-06T21:30:26.332Z,100186.38
2022-11-06T21:35:27.954Z,100178.84
2022-11-06T21:40:29.524Z,100186.59
2022-11-06T21:45:31.047Z,100210.31
2022-11-06T21:50:32.594Z,100203.44
2022-11-06T21:55:53.903Z,100214.22
2022-11-06T22:00:55.609Z,100221.09
2022-11-06T22:06:04.875Z,100228.22
2022-11-06T22:11:14.756Z,100226.13
2022-11-06T22:16:19.196Z,100240.97
2022-11-06T22:21:23.827Z,100246.41
2022-11-06T22:26:29.158Z,100252.72
2022-11-06T22:31:30.898Z,100252.13
2022-11-06T22:36:32.522Z,100253.34
2022-11-06T22:41:34.544Z,100256.97
2022-11-06T22:46:36.407Z,100257.16
2022-11-06T22:51:38.480Z,100252.09
2022-11-06T22:56:40.027Z,100256.41
2022-11-06T23:01:42.841Z,100259.06
2022-11-06T23:06:45.380Z,100259.34
2022-11-06T23:11:47.326Z,100266.13
2022-11-06T23:16:57.672Z,100254.09
2022-11-06T23:22:18.366Z,100259.19
2022-11-06T23:27:20.690Z,100246.44
2022-11-06T23:32:22.330Z,100254.69
2022-11-06T23:37:24.619Z,100262.06
2022-11-06T23:42:26.279Z,100258.44
2022-11-06T23:47:28.148Z,100259.03
2022-11-06T23:52:29.702Z,100260.53
2022-11-06T23:57:31.200Z,100256.94
